Details for Ryanair at LIPE




Go Back


Latest METAR
Local Time

LIPE 181250Z 06005KT 350V130 9999 SCT025 27/17 Q1018
18/09/2018, 15:25:27

Description
Results
Ryanair Logo
Number of Pilots based at LIPE
0 Pilots Based here
Number of Ryanair Flights Departed from LIPE
3 Flights Departed
Number of Ryanair Flights Arrived at LIPE
3 Flights Arrived
Number of Ryanair Schedules Departing from LIPE
113 Schedules
Number of Ryanair Schedules Arriving at LIPE
115 Schedules
Number of Ryanair Schedules Departing from LIPE availible today
33 Schedules Today
Number of Ryanair Schedules Arriving at LIPE availible today
33 Schedules Today
Average Landing Rate at LIPE
-165 fpm
Ryanair Average Landing Rate at LIPE
-203 fpm
Total Fuel Purchased at LIPE by Ryanair
15,472.04 kgs / 34,109.66 lbs

Pilots Based at LIPE


Pilot ID
Pilot Name
Pilot Rank
No. of Flights
No. of Flying Hours
There are no pilots assigned to this hub!   Will you be the first?
Content